This is the latest recevied weather packets stored in our database for station/object SV2ASS-2. If no packets are shown the sender has not sent any weather packets the latest 10 day(s).
| Time | Temp. | Humidity | Pressure | Rain* | Wind** | Luminosity | Snow |
|---|---|---|---|---|---|---|---|
| 1777645667 | 13.33° C | 59% | 1024.4 hPa | - | - | - | - |
| 1777644767 | 13.33° C | 56% | 1024.4 hPa | - | - | - | - |
| 1777643867 | 13.33° C | 54% | 1024.4 hPa | - | - | - | - |
| 1777642966 | 13.33° C | 60% | 1024.5 hPa | - | - | - | - |
| 1777642066 | 13.33° C | 56% | 1024.5 hPa | - | - | - | - |
| 1777641166 | 12.78° C | 56% | 1024.7 hPa | - | - | - | - |
| 1777640266 | 12.78° C | 61% | 1024.8 hPa | - | - | - | - |
| 1777639366 | 12.78° C | 55% | 1024.8 hPa | - | - | - | - |
| 1777638465 | 12.78° C | 60% | 1025.1 hPa | - | - | - | - |
| 1777637565 | 12.22° C | 64% | 1025.2 hPa | - | - | - | - |
| 1777636665 | 12.22° C | 63% | 1025.3 hPa | - | - | - | - |
| 1777635765 | 12.22° C | 64% | 1025.4 hPa | - | - | - | - |
| 1777634865 | 13.89° C | 60% | 1025.4 hPa | - | - | - | - |
| 1777633965 | 11.67° C | 66% | 1025.4 hPa | - | - | - | - |
| 1777633065 | 11.67° C | 63% | 1025.3 hPa | - | - | - | - |
| 1777632165 | 11.67° C | 66% | 1025.4 hPa | - | - | - | - |
| 1777631264 | 11.11° C | 67% | 1025.4 hPa | - | - | - | - |
| 1777630364 | 8.89° C | 63% | 1023.1 hPa | - | - | - | - |
| 1777629464 | 11.11° C | 58% | 1025.2 hPa | - | - | - | - |
| 1777628563 | 12.78° C | 53% | 1025.1 hPa | - | - | - | - |
| 1777627664 | 13.33° C | 51% | 1025.1 hPa | - | - | - | - |
| 1777626763 | 12.22° C | 52% | 1025.1 hPa | - | - | - | - |
| 1777626054 | 12.22° C | 51% | 1025 hPa | - | - | - | - |
| 1777625153 | 11.11° C | 51% | 1025.1 hPa | - | - | - | - |
| 1777624253 | 11.11° C | 55% | 1025.2 hPa | - | - | - | - |
* Rain since midnight (hover to see other rain measurements)
** Current wind speed in m/s (hover to see current wind gust speed)